createdAt,value
2022-10-25T00:00:01.737Z,6.89
2022-10-25T00:02:39.713Z,6.91
2022-10-25T00:05:07.957Z,6.94
2022-10-25T00:07:35.307Z,6.95
2022-10-25T00:10:02.752Z,7.01
2022-10-25T00:12:30.107Z,6.95
2022-10-25T00:15:01.420Z,7.02
2022-10-25T00:17:31.070Z,6.93
2022-10-25T00:19:58.481Z,6.95
2022-10-25T00:22:25.854Z,6.92
2022-10-25T00:24:53.255Z,6.89
2022-10-25T00:27:20.885Z,6.97
2022-10-25T00:29:48.243Z,6.95
2022-10-25T00:32:15.702Z,6.92
2022-10-25T00:34:43.158Z,6.94
2022-10-25T00:37:10.694Z,7.01
2022-10-25T00:39:38.125Z,7.06
2022-10-25T00:42:05.547Z,7.03
2022-10-25T00:44:39.245Z,7.10
2022-10-25T00:47:18.998Z,7.12
2022-10-25T00:49:59.423Z,7.06
2022-10-25T00:52:32.513Z,7.08
2022-10-25T00:55:01.228Z,7.06
2022-10-25T00:57:41.534Z,7.10
2022-10-25T01:00:09.559Z,7.08
2022-10-25T01:02:37.682Z,7.07
2022-10-25T01:05:05.770Z,7.11
2022-10-25T01:07:33.125Z,7.08
2022-10-25T01:10:00.599Z,7.08
2022-10-25T01:12:28.162Z,7.11
2022-10-25T01:14:55.896Z,7.14
2022-10-25T01:17:54.393Z,7.28
2022-10-25T01:20:51.412Z,7.32
2022-10-25T01:23:53.237Z,7.31
2022-10-25T01:27:01.085Z,7.30
2022-10-25T01:30:04.506Z,7.32
2022-10-25T01:32:53.690Z,7.30
2022-10-25T01:35:28.972Z,7.29
2022-10-25T01:38:25.525Z,7.31
2022-10-25T01:41:19.058Z,7.22
2022-10-25T01:44:18.581Z,7.27
2022-10-25T01:46:53.903Z,7.28
2022-10-25T01:49:35.155Z,7.26
2022-10-25T01:52:03.902Z,7.20
2022-10-25T01:54:31.544Z,7.19
2022-10-25T01:57:13.417Z,7.23
2022-10-25T02:00:10.014Z,7.36
2022-10-25T02:03:26.277Z,7.36
2022-10-25T02:06:13.933Z,7.28
2022-10-25T02:08:51.473Z,7.35
2022-10-25T02:11:30.187Z,7.38
2022-10-25T02:14:33.266Z,7.41
2022-10-25T02:17:06.214Z,7.30
2022-10-25T02:19:37.747Z,7.36
2022-10-25T02:22:09.716Z,7.38
2022-10-25T02:24:39.370Z,7.34
2022-10-25T02:27:08.645Z,7.31
2022-10-25T02:29:37.265Z,7.31
2022-10-25T02:32:05.083Z,7.31
2022-10-25T02:34:33.384Z,7.24
2022-10-25T02:37:01.009Z,7.20
2022-10-25T02:39:31.547Z,7.27
2022-10-25T02:42:02.730Z,7.26
2022-10-25T02:44:30.213Z,7.22
2022-10-25T02:46:58.174Z,7.21
2022-10-25T02:49:25.687Z,7.15
2022-10-25T02:51:53.232Z,7.15
2022-10-25T02:54:20.770Z,7.17
2022-10-25T02:56:52.711Z,7.16
2022-10-25T02:59:21.479Z,7.15
2022-10-25T03:01:49.629Z,7.23
2022-10-25T03:04:17.191Z,7.18
2022-10-25T03:06:44.562Z,7.21
2022-10-25T03:09:12.016Z,7.12
2022-10-25T03:11:39.411Z,7.22
2022-10-25T03:14:06.967Z,7.24
2022-10-25T03:16:34.454Z,7.22
2022-10-25T03:19:01.945Z,7.26
2022-10-25T03:21:29.343Z,7.28
2022-10-25T03:23:56.942Z,7.29
2022-10-25T03:26:24.483Z,7.29
2022-10-25T03:28:51.830Z,7.28
2022-10-25T03:31:20.941Z,7.32
2022-10-25T03:33:48.546Z,7.34
2022-10-25T03:36:16.067Z,7.40
2022-10-25T03:38:43.822Z,7.38
2022-10-25T03:41:11.316Z,7.42
2022-10-25T03:43:38.711Z,7.46
2022-10-25T03:46:06.504Z,7.50
2022-10-25T03:48:34.167Z,7.50
2022-10-25T03:51:01.571Z,7.47
2022-10-25T03:53:28.938Z,7.43
2022-10-25T03:55:56.386Z,7.48
2022-10-25T03:58:23.713Z,7.46
2022-10-25T04:00:51.189Z,7.54
2022-10-25T04:03:18.680Z,7.59
2022-10-25T04:05:46.170Z,7.59
2022-10-25T04:08:13.579Z,7.63
2022-10-25T04:10:40.996Z,7.66
2022-10-25T04:13:08.406Z,7.67
2022-10-25T04:15:37.560Z,7.71
2022-10-25T04:18:05.347Z,7.70
2022-10-25T04:20:32.807Z,7.57
2022-10-25T04:23:00.206Z,7.48
2022-10-25T04:25:29.215Z,7.40
2022-10-25T04:27:59.410Z,7.47
2022-10-25T04:30:26.807Z,7.36
2022-10-25T04:32:54.294Z,7.41
2022-10-25T04:35:21.669Z,7.49
2022-10-25T04:37:49.665Z,7.62
2022-10-25T04:40:20.081Z,7.66
2022-10-25T04:42:50.140Z,7.77
2022-10-25T04:45:17.754Z,7.86
2022-10-25T04:47:45.180Z,7.91
2022-10-25T04:50:12.611Z,7.92
2022-10-25T04:52:40.063Z,7.96
2022-10-25T04:55:07.778Z,8.03
2022-10-25T04:57:35.232Z,8.01
2022-10-25T05:00:02.898Z,8.09
2022-10-25T05:02:30.631Z,8.18
2022-10-25T05:04:58.004Z,8.29
2022-10-25T05:07:25.544Z,8.54
2022-10-25T05:09:52.965Z,8.71
2022-10-25T05:12:20.430Z,8.82
2022-10-25T05:14:47.930Z,8.87
2022-10-25T05:17:15.395Z,9.40
2022-10-25T05:19:42.753Z,9.93
2022-10-25T05:22:10.174Z,10.33
2022-10-25T05:24:37.659Z,10.49
2022-10-25T05:27:05.203Z,10.68
2022-10-25T05:29:32.737Z,10.73
2022-10-25T05:32:00.251Z,10.77
2022-10-25T05:34:27.796Z,10.82
2022-10-25T05:36:55.648Z,10.79
2022-10-25T05:39:23.002Z,10.76
2022-10-25T05:41:50.711Z,10.72
2022-10-25T05:44:18.526Z,10.72
2022-10-25T05:46:46.086Z,10.70
2022-10-25T05:49:13.984Z,10.67
2022-10-25T05:51:41.447Z,10.58
2022-10-25T05:54:14.842Z,10.65
2022-10-25T05:56:43.218Z,10.86
2022-10-25T05:59:12.803Z,11.02
2022-10-25T06:01:42.716Z,11.09
2022-10-25T06:04:10.748Z,11.10
2022-10-25T06:06:39.993Z,11.08
2022-10-25T06:09:08.049Z,11.04
2022-10-25T06:11:35.595Z,11.11
2022-10-25T06:14:03.797Z,11.13
2022-10-25T06:16:31.328Z,11.16
2022-10-25T06:18:58.910Z,11.16
2022-10-25T06:21:28.949Z,11.19
2022-10-25T06:23:58.264Z,11.19
2022-10-25T06:26:28.393Z,11.18
2022-10-25T06:28:59.365Z,11.04
2022-10-25T06:31:27.070Z,11.00
2022-10-25T06:33:54.516Z,11.19
2022-10-25T06:36:23.956Z,11.46
2022-10-25T06:38:51.925Z,12.07
2022-10-25T06:41:25.441Z,12.39
2022-10-25T06:43:52.875Z,13.15
2022-10-25T06:46:26.001Z,13.40
2022-10-25T06:48:55.087Z,13.81
2022-10-25T06:51:23.821Z,14.15
2022-10-25T06:53:59.706Z,14.56
2022-10-25T06:56:28.167Z,15.12
2022-10-25T06:58:55.937Z,15.41
2022-10-25T07:01:25.511Z,15.56
2022-10-25T07:03:56.990Z,15.63
2022-10-25T07:06:29.783Z,15.63
2022-10-25T07:09:01.328Z,15.62
2022-10-25T07:11:31.535Z,15.47
2022-10-25T07:14:00.705Z,15.30
2022-10-25T07:16:29.283Z,15.09
2022-10-25T07:19:01.409Z,15.00
2022-10-25T07:21:30.736Z,14.78
2022-10-25T07:23:58.467Z,14.61
2022-10-25T07:26:28.507Z,14.69
2022-10-25T07:28:58.199Z,14.69
2022-10-25T07:31:29.024Z,14.62
2022-10-25T07:33:59.185Z,14.51
2022-10-25T07:36:26.948Z,14.26
2022-10-25T07:38:55.132Z,14.12
2022-10-25T07:41:22.893Z,13.95
2022-10-25T07:43:50.300Z,13.81
2022-10-25T07:46:18.658Z,13.63
2022-10-25T07:48:46.142Z,13.53
2022-10-25T07:51:15.766Z,13.41
2022-10-25T07:53:43.817Z,13.23
2022-10-25T07:56:18.870Z,13.18
2022-10-25T07:58:49.845Z,12.91
2022-10-25T08:01:23.401Z,12.85
2022-10-25T08:03:52.841Z,12.64
2022-10-25T08:06:23.178Z,12.40
2022-10-25T08:08:50.820Z,12.14
2022-10-25T08:11:18.600Z,12.02
2022-10-25T08:13:50.043Z,11.88
2022-10-25T08:16:17.760Z,11.67
2022-10-25T08:18:45.179Z,11.55
2022-10-25T08:21:12.904Z,11.41
2022-10-25T08:23:40.267Z,11.27
2022-10-25T08:26:07.732Z,11.16
2022-10-25T08:28:35.301Z,11.11
2022-10-25T08:31:04.596Z,11.03
2022-10-25T08:33:33.368Z,10.94
2022-10-25T08:36:04.188Z,10.80
2022-10-25T08:38:31.684Z,10.71
2022-10-25T08:41:22.502Z,10.79
2022-10-25T08:44:22.508Z,10.74
2022-10-25T08:46:57.687Z,10.64
2022-10-25T08:49:58.158Z,10.66
2022-10-25T08:52:38.677Z,10.45
2022-10-25T08:55:15.276Z,10.35
2022-10-25T08:57:48.925Z,10.19
2022-10-25T09:00:19.733Z,10.45
2022-10-25T09:02:54.871Z,10.11
2022-10-25T09:05:48.038Z,10.12
2022-10-25T09:08:50.517Z,10.06
2022-10-25T09:11:49.062Z,9.92
2022-10-25T09:14:35.856Z,9.91
2022-10-25T09:17:15.149Z,9.76
2022-10-25T09:20:00.911Z,9.73
2022-10-25T09:22:44.525Z,9.55
2022-10-25T09:25:29.092Z,9.53
2022-10-25T09:28:03.998Z,9.37
2022-10-25T09:30:37.785Z,9.17
2022-10-25T09:33:09.647Z,9.48
2022-10-25T09:35:45.607Z,9.20
2022-10-25T09:38:20.886Z,9.12
2022-10-25T09:40:58.226Z,9.05
2022-10-25T09:43:32.959Z,8.97
2022-10-25T09:46:06.219Z,8.87
2022-10-25T09:48:48.669Z,8.78
2022-10-25T09:51:38.188Z,8.91
2022-10-25T09:54:17.534Z,8.77
2022-10-25T09:56:44.933Z,8.57
2022-10-25T09:59:16.244Z,8.54
2022-10-25T10:01:43.889Z,8.44
2022-10-25T10:04:36.527Z,8.62
2022-10-25T10:07:36.274Z,8.54
2022-10-25T10:10:09.647Z,8.49
2022-10-25T10:13:06.747Z,8.52
2022-10-25T10:15:48.147Z,8.43
2022-10-25T10:18:33.244Z,8.48
2022-10-25T10:21:16.223Z,8.45
2022-10-25T10:23:43.549Z,8.23
2022-10-25T10:26:31.900Z,8.33
2022-10-25T10:29:07.923Z,8.23
2022-10-25T10:31:42.824Z,8.16
2022-10-25T10:34:23.766Z,8.17
2022-10-25T10:37:13.077Z,8.16
2022-10-25T10:40:00.697Z,8.09
2022-10-25T10:42:35.021Z,7.97
2022-10-25T10:45:08.597Z,7.96
2022-10-25T10:47:50.933Z,7.95
2022-10-25T10:50:22.154Z,7.88
2022-10-25T10:53:00.008Z,7.93
2022-10-25T10:55:36.000Z,7.90
2022-10-25T10:58:06.078Z,7.75
2022-10-25T11:00:34.848Z,7.74
2022-10-25T11:03:02.300Z,7.67
2022-10-25T11:05:35.489Z,7.72
2022-10-25T11:08:08.652Z,7.75
2022-10-25T11:10:37.411Z,7.65
2022-10-25T11:13:23.972Z,7.67
2022-10-25T11:16:31.281Z,7.74
2022-10-25T11:19:14.847Z,7.67
2022-10-25T11:22:09.928Z,7.67
2022-10-25T11:24:54.670Z,7.63
2022-10-25T11:27:24.964Z,7.60
2022-10-25T11:30:27.657Z,7.63
2022-10-25T11:33:26.925Z,7.67
2022-10-25T11:36:23.022Z,7.63
2022-10-25T11:39:23.158Z,7.56
2022-10-25T11:42:43.063Z,7.59
2022-10-25T11:45:22.912Z,7.51
2022-10-25T11:48:20.526Z,7.57
2022-10-25T11:51:16.981Z,7.55
2022-10-25T11:53:56.666Z,7.46
2022-10-25T11:56:36.316Z,7.45
2022-10-25T11:59:28.483Z,7.50
2022-10-25T12:02:19.272Z,7.40
2022-10-25T12:04:58.697Z,7.34
2022-10-25T12:07:40.573Z,7.30
2022-10-25T12:10:36.365Z,7.41
2022-10-25T12:13:16.138Z,7.38
2022-10-25T12:15:47.296Z,7.26
2022-10-25T12:18:29.695Z,7.33
2022-10-25T12:20:58.865Z,7.20
2022-10-25T12:23:28.000Z,7.17
2022-10-25T12:26:01.702Z,7.32
2022-10-25T12:28:50.220Z,7.35
2022-10-25T12:31:25.866Z,7.28
2022-10-25T12:34:04.968Z,7.23
2022-10-25T12:36:38.620Z,7.19
2022-10-25T12:39:32.130Z,7.30
2022-10-25T12:42:05.377Z,7.20
2022-10-25T12:44:52.953Z,7.34
2022-10-25T12:47:57.675Z,7.33
2022-10-25T12:50:43.469Z,7.03
2022-10-25T12:53:49.321Z,7.26
2022-10-25T12:56:53.776Z,7.24
2022-10-25T12:59:30.090Z,7.17
2022-10-25T13:02:35.025Z,7.22
2022-10-25T13:05:30.182Z,7.25
2022-10-25T13:08:01.150Z,7.16
2022-10-25T13:10:34.282Z,7.16
2022-10-25T13:13:05.116Z,7.09
2022-10-25T13:15:57.272Z,7.16
2022-10-25T13:18:40.446Z,7.14
2022-10-25T13:21:16.016Z,7.11
2022-10-25T13:23:43.354Z,6.98
2022-10-25T13:26:17.073Z,7.00
2022-10-25T13:28:46.985Z,7.00
2022-10-25T13:31:36.203Z,7.12
2022-10-25T13:34:12.487Z,7.08
2022-10-25T13:36:54.614Z,7.14
2022-10-25T13:39:32.398Z,7.12
2022-10-25T13:42:15.118Z,7.14
2022-10-25T13:45:03.806Z,7.14
2022-10-25T13:47:51.274Z,7.14
2022-10-25T13:50:27.938Z,6.97
2022-10-25T13:53:19.101Z,7.13
2022-10-25T13:55:56.249Z,6.98
2022-10-25T13:58:31.871Z,7.03
2022-10-25T14:01:18.067Z,7.09
2022-10-25T14:04:01.677Z,7.04
2022-10-25T14:06:43.257Z,7.02
2022-10-25T14:09:33.721Z,7.08
2022-10-25T14:12:07.620Z,6.96
2022-10-25T14:14:48.302Z,6.96
2022-10-25T14:17:35.252Z,6.90
2022-10-25T14:20:26.822Z,6.94
2022-10-25T14:23:06.293Z,6.81
2022-10-25T14:25:38.299Z,6.82
2022-10-25T14:28:22.468Z,6.83
2022-10-25T14:30:53.063Z,6.73
2022-10-25T14:33:33.818Z,6.80
2022-10-25T14:36:06.105Z,6.79
2022-10-25T14:38:50.086Z,6.79
2022-10-25T14:41:22.821Z,6.74
2022-10-25T14:43:50.370Z,6.62
2022-10-25T14:46:20.305Z,6.71
2022-10-25T14:48:49.565Z,6.65
2022-10-25T14:51:28.716Z,6.67
2022-10-25T14:54:17.651Z,6.73
2022-10-25T14:56:44.960Z,6.64
2022-10-25T14:59:30.344Z,6.64
2022-10-25T15:02:07.052Z,6.64
2022-10-25T15:04:42.244Z,6.71
2022-10-25T15:07:23.382Z,6.74
2022-10-25T15:09:56.997Z,6.67
2022-10-25T15:12:26.281Z,6.65
2022-10-25T15:14:55.159Z,6.60
2022-10-25T15:17:27.653Z,6.61
2022-10-25T15:20:07.368Z,6.68
2022-10-25T15:22:47.685Z,6.71
2022-10-25T15:25:24.360Z,6.65
2022-10-25T15:27:57.153Z,6.51
2022-10-25T15:30:43.431Z,6.64
2022-10-25T15:33:27.273Z,6.60
2022-10-25T15:35:57.811Z,6.50
2022-10-25T15:38:54.355Z,6.56
2022-10-25T15:41:19.159Z,6.45
2022-10-25T15:43:46.535Z,6.47
2022-10-25T15:46:26.209Z,6.63
2022-10-25T15:48:53.864Z,6.50
2022-10-25T15:51:21.528Z,6.51
2022-10-25T15:53:49.195Z,6.51
2022-10-25T15:56:19.716Z,6.57
2022-10-25T15:58:48.024Z,6.55
2022-10-25T16:01:15.526Z,6.55
2022-10-25T16:03:43.136Z,6.50
2022-10-25T16:06:13.961Z,6.57
2022-10-25T16:08:42.290Z,6.51
2022-10-25T16:11:16.906Z,6.59
2022-10-25T16:13:45.881Z,6.55
2022-10-25T16:16:38.930Z,6.59
2022-10-25T16:19:10.161Z,6.46
2022-10-25T16:21:37.619Z,6.45
2022-10-25T16:24:05.018Z,6.44
2022-10-25T16:26:44.027Z,6.52
2022-10-25T16:29:24.941Z,6.55
2022-10-25T16:31:54.056Z,6.45
2022-10-25T16:37:58.321Z,6.50
2022-10-25T16:40:25.726Z,6.49
2022-10-25T16:42:53.343Z,6.52
2022-10-25T16:45:31.448Z,6.64
2022-10-25T16:47:59.745Z,6.50
2022-10-25T16:50:30.140Z,6.57
2022-10-25T16:53:03.208Z,6.55
2022-10-25T16:55:31.351Z,6.42
2022-10-25T16:57:59.871Z,6.51
2022-10-25T17:00:29.108Z,6.56
2022-10-25T17:02:56.505Z,6.55
2022-10-25T17:05:29.079Z,6.62
2022-10-25T17:07:56.583Z,6.51
2022-10-25T17:10:24.089Z,6.55
2022-10-25T17:12:54.483Z,6.56
2022-10-25T17:15:22.180Z,6.48
2022-10-25T17:17:49.751Z,6.51
2022-10-25T17:20:18.016Z,6.51
2022-10-25T17:22:45.906Z,6.45
2022-10-25T17:25:13.341Z,6.47
2022-10-25T17:27:45.619Z,6.46
2022-10-25T17:30:16.621Z,6.50
2022-10-25T17:32:45.169Z,6.48
2022-10-25T17:35:13.094Z,6.49
2022-10-25T17:37:44.509Z,6.50
2022-10-25T17:40:16.109Z,6.48
2022-10-25T17:42:43.537Z,6.44
2022-10-25T17:45:11.301Z,6.41
2022-10-25T17:47:42.735Z,6.37
2022-10-25T17:50:13.031Z,6.42
2022-10-25T17:52:42.472Z,6.34
2022-10-25T17:55:11.520Z,6.37
2022-10-25T17:57:39.790Z,6.34
2022-10-25T18:00:08.044Z,6.37
2022-10-25T18:02:44.288Z,6.34
2022-10-25T18:05:20.325Z,6.34
2022-10-25T18:07:48.943Z,6.33
2022-10-25T18:10:16.968Z,6.32
2022-10-25T18:12:45.518Z,6.29
2022-10-25T18:15:13.059Z,6.31
2022-10-25T18:17:41.116Z,6.13
2022-10-25T18:20:09.032Z,6.33
2022-10-25T18:22:36.450Z,6.32
2022-10-25T18:25:03.946Z,6.32
2022-10-25T18:27:31.585Z,6.28
2022-10-25T18:29:58.959Z,6.30
2022-10-25T18:32:33.589Z,6.30
2022-10-25T18:35:04.040Z,6.28
2022-10-25T18:37:31.364Z,6.21
2022-10-25T18:39:58.808Z,6.24
2022-10-25T18:42:27.387Z,6.21
2022-10-25T18:44:55.611Z,6.18
2022-10-25T18:47:23.041Z,6.21
2022-10-25T18:49:50.355Z,6.23
2022-10-25T18:52:17.849Z,6.21
2022-10-25T18:54:45.217Z,6.18
2022-10-25T18:57:13.813Z,6.17
2022-10-25T18:59:41.902Z,6.21
2022-10-25T19:02:11.241Z,6.20
2022-10-25T19:04:38.679Z,6.10
2022-10-25T19:07:06.408Z,6.14
2022-10-25T19:09:33.846Z,6.17
2022-10-25T19:12:01.176Z,6.14
2022-10-25T19:14:28.572Z,6.11
2022-10-25T19:16:55.935Z,6.10
2022-10-25T19:19:23.416Z,6.13
2022-10-25T19:21:50.798Z,6.14
2022-10-25T19:24:18.271Z,6.10
2022-10-25T19:26:45.609Z,6.10
2022-10-25T19:29:13.032Z,6.06
2022-10-25T19:31:40.490Z,6.06
2022-10-25T19:34:07.863Z,6.05
2022-10-25T19:36:35.382Z,6.02
2022-10-25T19:39:04.012Z,6.00
2022-10-25T19:41:31.432Z,5.93
2022-10-25T19:43:58.877Z,5.89
2022-10-25T19:46:26.506Z,5.85
2022-10-25T19:48:56.409Z,5.83
2022-10-25T19:51:24.005Z,5.79
2022-10-25T19:53:51.474Z,5.78
2022-10-25T19:56:21.985Z,5.83
2022-10-25T19:58:50.128Z,5.79
2022-10-25T20:01:21.173Z,5.83
2022-10-25T20:03:51.095Z,5.78
2022-10-25T20:06:24.956Z,5.82
2022-10-25T20:08:53.897Z,5.74
2022-10-25T20:11:22.539Z,5.75
2022-10-25T20:13:54.654Z,5.78
2022-10-25T20:16:23.170Z,5.72
2022-10-25T20:18:50.747Z,5.68
2022-10-25T20:21:21.998Z,5.74
2022-10-25T20:23:54.829Z,5.74
2022-10-25T20:26:25.549Z,5.67
2022-10-25T20:28:54.822Z,5.61
2022-10-25T20:31:24.533Z,5.59
2022-10-25T20:33:52.890Z,5.54
2022-10-25T20:36:20.656Z,5.47
2022-10-25T20:38:48.330Z,5.43
2022-10-25T20:41:18.744Z,5.44
2022-10-25T20:43:51.445Z,5.40
2022-10-25T20:46:19.985Z,5.30
2022-10-25T20:48:47.358Z,5.21
2022-10-25T20:51:15.917Z,5.21
2022-10-25T20:53:44.635Z,5.20
2022-10-25T20:56:16.705Z,5.23
2022-10-25T20:58:44.702Z,5.07
2022-10-25T21:01:12.247Z,5.03
2022-10-25T21:03:40.189Z,4.93
2022-10-25T21:06:10.761Z,5.01
2022-10-25T21:08:38.581Z,4.93
2022-10-25T21:11:09.513Z,4.91
2022-10-25T21:13:37.736Z,4.83
2022-10-25T21:16:16.206Z,4.93
2022-10-25T21:18:44.127Z,4.76
2022-10-25T21:21:18.183Z,4.80
2022-10-25T21:23:47.088Z,4.70
2022-10-25T21:26:14.796Z,4.65
2022-10-25T21:28:44.180Z,4.57
2022-10-25T21:31:14.213Z,4.59
2022-10-25T21:33:49.908Z,4.50
2022-10-25T21:36:19.880Z,4.51
2022-10-25T21:38:47.357Z,4.48
2022-10-25T21:41:21.048Z,4.50
2022-10-25T21:43:50.042Z,4.43
2022-10-25T21:46:18.881Z,4.40
2022-10-25T21:48:53.129Z,4.36
2022-10-25T21:51:22.735Z,4.37
2022-10-25T21:53:50.435Z,4.28
2022-10-25T21:56:20.128Z,4.31
2022-10-25T21:58:50.130Z,4.25
2022-10-25T22:01:20.316Z,4.27
2022-10-25T22:03:48.001Z,4.18
2022-10-25T22:06:18.408Z,4.23
2022-10-25T22:08:46.417Z,4.19
2022-10-25T22:11:25.785Z,4.31
2022-10-25T22:13:58.708Z,4.27
2022-10-25T22:16:26.701Z,4.24
2022-10-25T22:19:07.213Z,4.39
2022-10-25T22:21:37.593Z,4.32
2022-10-25T22:24:06.923Z,4.32
2022-10-25T22:26:35.702Z,4.34
2022-10-25T22:29:03.318Z,4.32
2022-10-25T22:31:31.140Z,4.35
2022-10-25T22:34:03.432Z,4.45
2022-10-25T22:36:39.129Z,4.49
2022-10-25T22:39:07.855Z,4.44
2022-10-25T22:41:35.711Z,4.46
2022-10-25T22:44:03.524Z,4.44
2022-10-25T22:46:33.920Z,4.56
2022-10-25T22:49:06.131Z,4.57
2022-10-25T22:51:33.850Z,4.58
2022-10-25T22:54:01.272Z,4.59
2022-10-25T22:56:31.014Z,4.69
2022-10-25T22:59:01.996Z,4.73
2022-10-25T23:01:35.445Z,4.83
2022-10-25T23:04:04.866Z,4.77
2022-10-25T23:06:34.717Z,4.83
2022-10-25T23:09:07.242Z,4.87
2022-10-25T23:11:36.786Z,4.86
2022-10-25T23:14:05.369Z,4.86
2022-10-25T23:16:32.770Z,4.88
2022-10-25T23:19:00.274Z,4.93
2022-10-25T23:21:30.433Z,4.97
2022-10-25T23:23:59.421Z,5.00
2022-10-25T23:26:32.451Z,5.08
2022-10-25T23:29:00.709Z,5.02
2022-10-25T23:31:29.104Z,5.01
2022-10-25T23:33:58.552Z,5.05
2022-10-25T23:36:28.816Z,5.08
2022-10-25T23:38:57.009Z,5.05
2022-10-25T23:41:24.741Z,5.07
2022-10-25T23:43:52.128Z,5.03
2022-10-25T23:46:19.796Z,5.11
2022-10-25T23:48:47.246Z,5.13
2022-10-25T23:51:16.954Z,5.18
2022-10-25T23:53:45.818Z,5.11
2022-10-25T23:56:14.195Z,5.17
2022-10-25T23:58:42.022Z,5.17
